createdAt,value
2022-09-04T00:01:03.099Z,15.81
2022-09-04T00:03:19.877Z,15.75
2022-09-04T00:05:29.292Z,15.79
2022-09-04T00:07:39.366Z,15.81
2022-09-04T00:09:55.320Z,15.75
2022-09-04T00:12:05.395Z,15.76
2022-09-04T00:14:11.516Z,15.76
2022-09-04T00:16:20.634Z,15.72
2022-09-04T00:18:30.167Z,15.69
2022-09-04T00:20:41.325Z,15.74
2022-09-04T00:22:52.411Z,15.68
2022-09-04T00:25:03.975Z,15.60
2022-09-04T00:27:11.666Z,15.57
2022-09-04T00:29:24.784Z,15.59
2022-09-04T00:31:33.933Z,15.56
2022-09-04T00:33:42.172Z,15.58
2022-09-04T00:35:54.771Z,15.57
2022-09-04T00:38:02.316Z,15.56
2022-09-04T00:40:10.653Z,15.52
2022-09-04T00:42:30.040Z,15.54
2022-09-04T00:44:46.631Z,15.52
2022-09-04T00:47:21.314Z,15.53
2022-09-04T00:49:59.614Z,15.55
2022-09-04T00:52:11.937Z,15.55
2022-09-04T00:54:32.232Z,15.52
2022-09-04T00:57:02.062Z,15.50
2022-09-04T00:59:12.038Z,15.54
2022-09-04T01:01:20.944Z,15.51
2022-09-04T01:03:41.467Z,15.50
2022-09-04T01:06:17.768Z,15.49
2022-09-04T01:08:28.732Z,15.49
2022-09-04T01:10:41.755Z,15.43
2022-09-04T01:12:52.803Z,15.50
2022-09-04T01:15:01.154Z,15.47
2022-09-04T01:17:15.380Z,15.52
2022-09-04T01:19:31.372Z,15.49
2022-09-04T01:22:12.824Z,15.48
2022-09-04T01:24:30.764Z,15.49
2022-09-04T01:26:41.289Z,15.45
2022-09-04T01:28:54.200Z,15.44
2022-09-04T01:31:05.128Z,15.44
2022-09-04T01:33:15.443Z,15.46
2022-09-04T01:35:28.725Z,15.42
2022-09-04T01:37:42.919Z,15.37
2022-09-04T01:39:52.392Z,15.42
2022-09-04T01:42:01.958Z,15.39
2022-09-04T01:44:07.237Z,15.35
2022-09-04T01:46:48.054Z,15.37
2022-09-04T01:48:59.326Z,15.37
2022-09-04T01:51:13.851Z,15.45
2022-09-04T01:53:23.722Z,15.33
2022-09-04T01:55:35.477Z,15.38
2022-09-04T01:57:55.632Z,15.31
2022-09-04T02:00:05.505Z,15.25
2022-09-04T02:02:16.543Z,15.27
2022-09-04T02:04:28.465Z,15.25
2022-09-04T02:06:39.187Z,15.26
2022-09-04T02:09:01.008Z,15.15
2022-09-04T02:11:10.114Z,15.22
2022-09-04T02:13:23.162Z,15.17
2022-09-04T02:15:39.182Z,15.17
2022-09-04T02:17:46.818Z,15.14
2022-09-04T02:20:04.696Z,15.20
2022-09-04T02:22:17.772Z,15.16
2022-09-04T02:24:28.607Z,15.17
2022-09-04T02:26:37.936Z,15.13
2022-09-04T02:28:53.059Z,15.15
2022-09-04T02:31:00.882Z,15.14
2022-09-04T02:33:15.160Z,15.15
2022-09-04T02:35:23.356Z,15.12
2022-09-04T02:37:33.453Z,15.11
2022-09-04T02:39:46.849Z,15.09
2022-09-04T02:42:00.590Z,15.01
2022-09-04T02:44:22.811Z,15.03
2022-09-04T02:46:31.315Z,15.08
2022-09-04T02:48:46.299Z,14.99
2022-09-04T02:51:07.102Z,15.02
2022-09-04T02:53:24.680Z,14.84
2022-09-04T02:55:46.592Z,14.86
2022-09-04T02:58:00.865Z,14.87
2022-09-04T03:00:14.550Z,14.85
2022-09-04T03:02:29.053Z,14.77
2022-09-04T03:04:39.058Z,14.75
2022-09-04T03:06:50.161Z,14.77
2022-09-04T03:09:00.593Z,14.70
2022-09-04T03:11:09.534Z,14.72
2022-09-04T03:13:19.136Z,14.78
2022-09-04T03:15:28.382Z,14.78
2022-09-04T03:17:41.652Z,14.77
2022-09-04T03:19:51.574Z,14.79
2022-09-04T03:21:58.712Z,14.80
2022-09-04T03:24:08.059Z,14.80
2022-09-04T03:26:19.914Z,14.78
2022-09-04T03:28:34.102Z,14.82
2022-09-04T03:30:40.168Z,14.77
2022-09-04T03:32:52.338Z,14.78
2022-09-04T03:35:02.502Z,14.76
2022-09-04T03:37:27.432Z,14.69
2022-09-04T03:39:41.521Z,14.68
2022-09-04T03:41:52.308Z,14.58
2022-09-04T03:44:08.334Z,14.60
2022-09-04T03:46:24.065Z,14.63
2022-09-04T03:48:43.061Z,14.50
2022-09-04T03:50:52.593Z,14.51
2022-09-04T03:53:00.985Z,14.61
2022-09-04T03:55:26.716Z,14.46
2022-09-04T03:57:39.484Z,14.46
2022-09-04T03:59:55.863Z,14.43
2022-09-04T04:02:06.503Z,14.44
2022-09-04T04:04:38.910Z,14.46
2022-09-04T04:06:47.348Z,14.46
2022-09-04T04:09:05.327Z,14.49
2022-09-04T04:11:26.552Z,14.45
2022-09-04T04:13:55.781Z,14.44
2022-09-04T04:16:13.300Z,14.36
2022-09-04T04:18:49.522Z,14.34
2022-09-04T04:21:01.488Z,14.35
2022-09-04T04:23:30.604Z,14.37
2022-09-04T04:25:52.648Z,14.38
2022-09-04T04:28:17.205Z,14.30
2022-09-04T04:30:20.607Z,14.26
2022-09-04T04:33:02.313Z,14.23
2022-09-04T04:35:18.013Z,14.23
2022-09-04T04:37:32.872Z,14.26
2022-09-04T04:39:41.097Z,14.25
2022-09-04T04:42:10.053Z,14.26
2022-09-04T04:44:18.043Z,14.23
2022-09-04T04:46:36.715Z,14.20
2022-09-04T04:49:05.647Z,14.24
2022-09-04T04:51:24.363Z,14.26
2022-09-04T04:53:32.584Z,14.32
2022-09-04T04:55:42.081Z,14.28
2022-09-04T04:58:16.598Z,14.32
2022-09-04T05:00:27.505Z,14.25
2022-09-04T05:02:36.582Z,14.30
2022-09-04T05:04:46.979Z,14.26
2022-09-04T05:06:57.695Z,14.28
2022-09-04T05:09:10.557Z,14.35
2022-09-04T05:11:25.766Z,14.41
2022-09-04T05:13:40.624Z,14.33
2022-09-04T05:16:07.991Z,14.35
2022-09-04T05:18:20.920Z,14.46
2022-09-04T05:20:37.140Z,14.47
2022-09-04T05:22:47.985Z,14.45
2022-09-04T05:25:01.792Z,14.46
2022-09-04T05:27:11.570Z,14.63
2022-09-04T05:29:22.642Z,14.55
2022-09-04T05:31:38.268Z,14.56
2022-09-04T05:33:49.668Z,14.58
2022-09-04T05:35:59.649Z,14.56
2022-09-04T05:38:10.640Z,14.46
2022-09-04T05:40:24.013Z,14.43
2022-09-04T05:42:45.395Z,14.53
2022-09-04T05:44:59.518Z,14.47
2022-09-04T05:47:15.849Z,14.48
2022-09-04T05:49:33.128Z,14.54
2022-09-04T05:52:04.426Z,14.61
2022-09-04T05:54:40.680Z,14.62
2022-09-04T05:57:12.964Z,14.73
2022-09-04T05:59:42.497Z,14.87
2022-09-04T06:02:11.945Z,14.92
2022-09-04T06:04:34.118Z,14.91
2022-09-04T06:06:44.935Z,14.96
2022-09-04T06:09:08.365Z,15.05
2022-09-04T06:11:38.110Z,15.07
2022-09-04T06:13:55.497Z,15.13
2022-09-04T06:16:16.141Z,15.05
2022-09-04T06:18:39.280Z,15.18
2022-09-04T06:21:14.143Z,15.34
2022-09-04T06:23:33.263Z,15.41
2022-09-04T06:25:54.788Z,15.49
2022-09-04T06:28:32.060Z,15.51
2022-09-04T06:30:43.981Z,15.65
2022-09-04T06:32:59.231Z,15.74
2022-09-04T06:35:22.884Z,15.81
2022-09-04T06:37:36.434Z,15.89
2022-09-04T06:39:52.133Z,15.93
2022-09-04T06:42:12.419Z,16.05
2022-09-04T06:44:32.253Z,16.23
2022-09-04T06:46:41.616Z,16.41
2022-09-04T06:48:54.502Z,16.64
2022-09-04T06:51:09.517Z,16.89
2022-09-04T06:53:21.223Z,17.22
2022-09-04T06:55:32.410Z,17.53
2022-09-04T06:58:00.731Z,17.84
2022-09-04T07:00:07.510Z,17.87
2022-09-04T07:02:24.867Z,18.10
2022-09-04T07:04:44.004Z,18.16
2022-09-04T07:07:02.115Z,18.52
2022-09-04T07:09:16.272Z,18.93
2022-09-04T07:11:25.491Z,18.96
2022-09-04T07:13:51.902Z,18.87
2022-09-04T07:16:16.888Z,18.68
2022-09-04T07:18:49.363Z,18.53
2022-09-04T07:21:03.056Z,18.57
2022-09-04T07:23:22.617Z,18.60
2022-09-04T07:25:34.290Z,18.77
2022-09-04T07:27:51.950Z,19.00
2022-09-04T07:30:01.487Z,18.90
2022-09-04T07:32:11.855Z,19.77
2022-09-04T07:34:22.378Z,20.05
2022-09-04T07:36:32.880Z,19.67
2022-09-04T07:38:41.707Z,19.84
2022-09-04T07:40:47.359Z,19.57
2022-09-04T07:42:55.138Z,20.32
2022-09-04T07:45:05.889Z,19.93
2022-09-04T07:47:18.057Z,20.29
2022-09-04T07:49:28.538Z,20.48
2022-09-04T07:51:38.899Z,21.22
2022-09-04T07:54:01.156Z,21.16
2022-09-04T07:56:10.116Z,21.51
2022-09-04T07:58:50.421Z,21.09
2022-09-04T08:01:10.296Z,22.01
2022-09-04T08:03:33.832Z,23.18
2022-09-04T08:05:41.339Z,23.50
2022-09-04T08:08:07.084Z,23.40
2022-09-04T08:10:26.677Z,24.93
2022-09-04T08:12:56.218Z,25.33
2022-09-04T08:15:10.793Z,24.63
2022-09-04T08:17:38.755Z,24.36
2022-09-04T08:19:50.928Z,23.77
2022-09-04T08:21:54.828Z,24.71
2022-09-04T08:24:33.806Z,23.89
2022-09-04T08:26:45.496Z,23.38
2022-09-04T08:29:03.043Z,23.73
2022-09-04T08:31:09.867Z,23.20
2022-09-04T08:33:33.713Z,23.40
2022-09-04T08:35:48.867Z,22.47
2022-09-04T08:38:19.532Z,22.80
2022-09-04T08:41:00.671Z,23.91
2022-09-04T08:43:29.799Z,24.06
2022-09-04T08:46:04.556Z,24.91
2022-09-04T08:48:54.934Z,25.34
2022-09-04T08:51:42.664Z,25.63
2022-09-04T08:54:13.884Z,26.60
2022-09-04T08:56:27.469Z,27.43
2022-09-04T08:59:11.931Z,26.12
2022-09-04T09:01:44.453Z,27.15
2022-09-04T09:04:27.357Z,27.29
2022-09-04T09:07:06.156Z,24.69
2022-09-04T09:09:57.047Z,25.25
2022-09-04T09:12:41.026Z,24.94
2022-09-04T09:15:18.365Z,27.16
2022-09-04T09:17:37.279Z,27.25
2022-09-04T09:19:47.053Z,24.79
2022-09-04T09:22:19.412Z,24.15
2022-09-04T09:24:52.521Z,23.31
2022-09-04T09:27:16.820Z,22.41
2022-09-04T09:29:43.682Z,22.78
2022-09-04T09:32:30.729Z,22.07
2022-09-04T09:35:21.247Z,21.53
2022-09-04T09:37:40.562Z,22.33
2022-09-04T09:40:14.013Z,23.42
2022-09-04T09:42:49.443Z,24.39
2022-09-04T09:45:38.408Z,25.24
2022-09-04T09:48:13.325Z,24.13
2022-09-04T09:50:58.829Z,25.02
2022-09-04T09:53:52.189Z,23.80
2022-09-04T09:56:30.749Z,27.16
2022-09-04T09:59:10.100Z,26.60
2022-09-04T10:01:37.392Z,26.32
2022-09-04T10:04:12.604Z,26.50
2022-09-04T10:06:53.944Z,27.09
2022-09-04T10:09:37.277Z,25.44
2022-09-04T10:12:07.920Z,25.13
2022-09-04T10:14:37.216Z,25.74
2022-09-04T10:17:14.525Z,26.52
2022-09-04T10:19:42.952Z,28.30
2022-09-04T10:22:14.924Z,26.84
2022-09-04T10:24:57.489Z,26.39
2022-09-04T10:27:27.548Z,27.77
2022-09-04T10:29:45.545Z,27.60
2022-09-04T10:32:34.505Z,27.26
2022-09-04T10:34:57.458Z,25.04
2022-09-04T10:37:17.477Z,24.51
2022-09-04T10:39:47.109Z,24.00
2022-09-04T10:42:05.932Z,24.27
2022-09-04T10:44:27.917Z,23.24
2022-09-04T10:46:38.098Z,23.04
2022-09-04T10:49:10.962Z,22.98
2022-09-04T10:51:37.406Z,23.09
2022-09-04T10:54:07.733Z,23.08
2022-09-04T10:56:22.999Z,22.96
2022-09-04T10:58:59.083Z,22.78
2022-09-04T11:01:39.730Z,23.41
2022-09-04T11:04:00.989Z,23.97
2022-09-04T11:06:42.264Z,24.07
2022-09-04T11:09:06.561Z,24.02
2022-09-04T11:11:23.425Z,24.22
2022-09-04T11:13:56.265Z,23.51
2022-09-04T11:16:23.222Z,24.04
2022-09-04T11:18:56.901Z,24.03
2022-09-04T11:21:34.752Z,24.25
2022-09-04T11:24:14.955Z,23.79
2022-09-04T11:27:11.164Z,24.31
2022-09-04T11:29:33.372Z,24.18
2022-09-04T11:31:49.431Z,24.33
2022-09-04T11:34:34.053Z,24.22
2022-09-04T11:36:54.473Z,24.37
2022-09-04T11:39:36.243Z,24.98
2022-09-04T11:42:08.695Z,25.10
2022-09-04T11:44:35.172Z,24.78
2022-09-04T11:47:12.090Z,24.15
2022-09-04T11:49:31.330Z,24.61
2022-09-04T11:52:00.244Z,24.09
2022-09-04T11:54:46.588Z,24.19
2022-09-04T11:57:05.230Z,24.30
2022-09-04T11:59:34.644Z,24.72
2022-09-04T12:01:55.156Z,24.72
2022-09-04T12:04:25.792Z,24.56
2022-09-04T12:06:44.630Z,24.67
2022-09-04T12:09:18.271Z,24.35
2022-09-04T12:11:42.552Z,24.78
2022-09-04T12:14:12.100Z,25.22
2022-09-04T12:16:44.583Z,25.70
2022-09-04T12:19:26.908Z,25.16
2022-09-04T12:21:58.029Z,25.11
2022-09-04T12:24:21.560Z,25.04
2022-09-04T12:26:57.056Z,24.99
2022-09-04T12:29:28.484Z,25.41
2022-09-04T12:32:03.674Z,25.47
2022-09-04T12:34:47.442Z,25.89
2022-09-04T12:37:16.166Z,26.70
2022-09-04T12:39:50.193Z,25.53
2022-09-04T12:42:02.342Z,25.87
2022-09-04T12:44:12.998Z,26.08
2022-09-04T12:46:35.678Z,26.13
2022-09-04T12:48:48.095Z,25.68
2022-09-04T12:50:58.591Z,26.39
2022-09-04T12:53:25.792Z,26.52
2022-09-04T12:55:39.360Z,27.01
2022-09-04T12:57:55.729Z,26.52
2022-09-04T13:00:08.056Z,26.02
2022-09-04T13:02:24.002Z,25.75
2022-09-04T13:04:34.179Z,26.03
2022-09-04T13:06:52.780Z,25.41
2022-09-04T13:09:11.342Z,25.10
2022-09-04T13:11:22.143Z,24.70
2022-09-04T13:13:39.390Z,24.77
2022-09-04T13:15:52.938Z,24.41
2022-09-04T13:18:12.471Z,24.23
2022-09-04T13:20:24.686Z,23.83
2022-09-04T13:22:39.411Z,23.92
2022-09-04T13:24:53.104Z,24.01
2022-09-04T13:27:09.133Z,24.06
2022-09-04T13:29:25.463Z,24.11
2022-09-04T13:31:51.167Z,24.88
2022-09-04T13:34:03.501Z,25.32
2022-09-04T13:36:19.095Z,25.24
2022-09-04T13:39:03.533Z,25.64
2022-09-04T13:41:33.352Z,25.84
2022-09-04T13:44:09.375Z,25.26
2022-09-04T13:46:18.760Z,25.75
2022-09-04T13:48:34.264Z,26.26
2022-09-04T13:50:41.019Z,25.70
2022-09-04T13:52:50.071Z,26.14
2022-09-04T13:55:03.056Z,26.02
2022-09-04T13:57:11.314Z,25.84
2022-09-04T13:59:20.563Z,25.59
2022-09-04T14:01:27.874Z,25.94
2022-09-04T14:03:37.358Z,25.02
2022-09-04T14:05:40.456Z,25.62
2022-09-04T14:07:47.525Z,25.55
2022-09-04T14:09:53.830Z,25.28
2022-09-04T14:12:11.327Z,25.44
2022-09-04T14:14:37.453Z,25.45
2022-09-04T14:16:41.698Z,24.97
2022-09-04T14:19:15.703Z,25.37
2022-09-04T14:21:30.658Z,25.41
2022-09-04T14:23:45.819Z,25.21
2022-09-04T14:25:55.215Z,25.51
2022-09-04T14:28:04.001Z,24.72
2022-09-04T14:30:09.900Z,25.19
2022-09-04T14:32:23.215Z,25.38
2022-09-04T14:34:37.531Z,25.57
2022-09-04T14:36:56.310Z,25.45
2022-09-04T14:39:13.521Z,25.64
2022-09-04T14:41:35.828Z,25.79
2022-09-04T14:43:48.718Z,25.83
2022-09-04T14:46:07.099Z,25.06
2022-09-04T14:48:12.645Z,25.32
2022-09-04T14:50:17.859Z,25.55
2022-09-04T14:52:24.649Z,25.64
2022-09-04T14:54:30.546Z,25.48
2022-09-04T14:56:41.030Z,25.33
2022-09-04T14:58:50.867Z,25.64
2022-09-04T15:01:00.157Z,25.50
2022-09-04T15:03:15.071Z,24.81
2022-09-04T15:05:24.823Z,24.63
2022-09-04T15:07:51.031Z,25.00
2022-09-04T15:09:55.210Z,25.40
2022-09-04T15:12:25.628Z,25.32
2022-09-04T15:14:34.322Z,25.29
2022-09-04T15:16:50.562Z,24.76
2022-09-04T15:18:58.978Z,24.63
2022-09-04T15:21:08.700Z,24.72
2022-09-04T15:23:18.689Z,24.89
2022-09-04T15:25:57.800Z,24.87
2022-09-04T15:28:06.718Z,25.07
2022-09-04T15:30:20.468Z,25.27
2022-09-04T15:32:27.100Z,24.79
2022-09-04T15:34:32.175Z,24.67
2022-09-04T15:36:36.079Z,24.61
2022-09-04T15:38:39.303Z,24.57
2022-09-04T15:41:12.800Z,24.54
2022-09-04T15:43:22.711Z,24.80
2022-09-04T15:45:36.021Z,24.70
2022-09-04T15:47:55.949Z,24.90
2022-09-04T15:50:04.389Z,24.56
2022-09-04T15:52:22.913Z,24.62
2022-09-04T15:54:50.933Z,24.51
2022-09-04T15:57:02.610Z,24.54
2022-09-04T15:59:15.836Z,24.51
2022-09-04T16:01:24.940Z,24.46
2022-09-04T16:03:36.514Z,24.62
2022-09-04T16:05:44.883Z,24.51
2022-09-04T16:08:03.686Z,24.45
2022-09-04T16:10:15.934Z,24.23
2022-09-04T16:12:23.079Z,24.32
2022-09-04T16:14:31.591Z,24.42
2022-09-04T16:16:42.550Z,24.36
2022-09-04T16:18:53.180Z,24.19
2022-09-04T16:21:00.028Z,24.10
2022-09-04T16:23:08.299Z,24.23
2022-09-04T16:25:23.940Z,24.28
2022-09-04T16:27:30.469Z,24.19
2022-09-04T16:29:36.946Z,24.06
2022-09-04T16:31:41.285Z,24.11
2022-09-04T16:33:50.157Z,24.03
2022-09-04T16:35:55.750Z,24.06
2022-09-04T16:38:06.712Z,24.18
2022-09-04T16:40:28.400Z,24.28
2022-09-04T16:42:40.246Z,24.35
2022-09-04T16:44:48.379Z,24.23
2022-09-04T16:47:04.717Z,24.14
2022-09-04T16:49:13.432Z,24.15
2022-09-04T16:51:41.008Z,24.14
2022-09-04T16:53:51.818Z,24.19
2022-09-04T16:55:59.947Z,24.17
2022-09-04T16:58:35.432Z,24.16
2022-09-04T17:00:54.468Z,24.04
2022-09-04T17:03:18.260Z,23.70
2022-09-04T17:05:34.941Z,23.39
2022-09-04T17:07:45.763Z,23.26
2022-09-04T17:09:58.696Z,23.18
2022-09-04T17:12:17.902Z,23.20
2022-09-04T17:14:26.352Z,23.26
2022-09-04T17:16:38.277Z,23.49
2022-09-04T17:18:47.824Z,23.43
2022-09-04T17:24:36.588Z,23.10
2022-09-04T17:28:18.986Z,23.20
2022-09-04T17:29:08.058Z,23.09
2022-09-04T17:29:08.637Z,23.26
2022-09-04T17:31:08.077Z,22.97
2022-09-04T17:36:49.262Z,23.09
2022-09-04T17:40:35.701Z,22.53
2022-09-04T17:40:42.935Z,22.88
2022-09-04T17:41:33.271Z,22.27
2022-09-04T17:43:36.575Z,22.17
2022-09-04T17:45:51.266Z,22.20
2022-09-04T17:48:02.402Z,22.11
2022-09-04T17:50:13.836Z,22.20
2022-09-04T17:52:27.062Z,22.00
2022-09-04T17:54:33.500Z,22.08
2022-09-04T17:56:41.709Z,21.97
2022-09-04T17:58:50.364Z,21.72
2022-09-04T18:01:15.115Z,21.52
2022-09-04T18:03:29.699Z,21.68
2022-09-04T18:05:39.993Z,21.84
2022-09-04T18:08:08.252Z,21.72
2022-09-04T18:10:20.986Z,21.62
2022-09-04T18:12:31.368Z,21.52
2022-09-04T18:14:40.509Z,21.37
2022-09-04T18:17:11.765Z,21.53
2022-09-04T18:19:21.957Z,21.39
2022-09-04T18:21:28.601Z,21.18
2022-09-04T18:23:51.171Z,21.13
2022-09-04T18:25:59.436Z,21.11
2022-09-04T18:28:12.696Z,21.11
2022-09-04T18:36:11.543Z,21.06
2022-09-04T18:37:06.096Z,20.91
2022-09-04T18:37:21.334Z,20.89
2022-09-04T18:37:51.257Z,20.76
2022-09-04T18:40:07.189Z,20.64
2022-09-04T18:46:15.100Z,20.65
2022-09-04T18:50:31.292Z,20.57
2022-09-04T18:50:44.270Z,20.39
2022-09-04T18:50:50.078Z,20.39
2022-09-04T18:52:06.724Z,20.25
2022-09-04T18:54:13.024Z,20.17
2022-09-04T18:56:20.795Z,20.22
2022-09-04T18:58:45.972Z,20.16
2022-09-04T19:00:54.029Z,20.23
2022-09-04T19:03:10.302Z,20.29
2022-09-04T19:05:15.096Z,20.22
2022-09-04T19:07:27.517Z,20.25
2022-09-04T19:09:48.619Z,20.24
2022-09-04T19:12:07.548Z,20.27
2022-09-04T19:14:15.375Z,20.29
2022-09-04T19:16:25.678Z,20.22
2022-09-04T19:18:41.721Z,20.17
2022-09-04T19:20:50.070Z,20.24
2022-09-04T19:22:55.812Z,20.33
2022-09-04T19:25:05.350Z,20.31
2022-09-04T19:27:27.358Z,20.24
2022-09-04T19:29:38.983Z,20.28
2022-09-04T19:31:45.009Z,20.29
2022-09-04T19:33:54.002Z,20.40
2022-09-04T19:36:05.767Z,20.32
2022-09-04T19:43:16.191Z,19.86
2022-09-04T19:45:34.807Z,20.15
2022-09-04T19:45:53.746Z,20.04
2022-09-04T19:46:17.278Z,19.74
2022-09-04T19:48:26.326Z,19.72
2022-09-04T19:53:23.138Z,19.74
2022-09-04T19:53:24.123Z,19.71
2022-09-04T19:55:33.043Z,19.66
2022-09-04T19:57:42.792Z,19.57
2022-09-04T19:59:51.385Z,19.63
2022-09-04T20:01:58.153Z,19.59
2022-09-04T20:04:12.408Z,19.57
2022-09-04T20:06:22.546Z,19.84
2022-09-04T20:08:32.662Z,20.03
2022-09-04T20:10:44.428Z,20.19
2022-09-04T20:12:51.266Z,20.14
2022-09-04T20:15:02.854Z,20.15
2022-09-04T20:17:21.658Z,20.01
2022-09-04T20:19:28.941Z,19.87
2022-09-04T20:21:45.059Z,19.67
2022-09-04T20:23:53.289Z,19.47
2022-09-04T20:26:04.335Z,19.41
2022-09-04T20:28:22.929Z,19.35
2022-09-04T20:30:27.180Z,19.23
2022-09-04T20:32:34.765Z,19.20
2022-09-04T20:34:44.631Z,19.28
2022-09-04T20:36:52.481Z,19.28
2022-09-04T20:38:59.802Z,19.29
2022-09-04T20:41:12.724Z,19.14
2022-09-04T20:43:28.053Z,19.10
2022-09-04T20:47:21.691Z,19.05
2022-09-04T20:52:48.977Z,19.02
2022-09-04T20:53:07.267Z,18.98
2022-09-04T20:53:14.897Z,18.83
2022-09-04T20:55:35.154Z,18.79
2022-09-04T21:03:05.369Z,18.73
2022-09-04T21:03:13.706Z,18.62
2022-09-04T21:03:22.399Z,18.62
2022-09-04T21:05:41.419Z,18.63
2022-09-04T21:07:49.194Z,18.60
2022-09-04T21:10:05.823Z,18.63
2022-09-04T21:12:32.815Z,18.54
2022-09-04T21:14:45.778Z,18.60
2022-09-04T21:17:33.525Z,18.70
2022-09-04T21:20:04.042Z,18.56
2022-09-04T21:22:33.442Z,18.54
2022-09-04T21:24:54.801Z,18.59
2022-09-04T21:27:28.500Z,18.54
2022-09-04T21:29:59.327Z,18.45
2022-09-04T21:32:21.388Z,18.36
2022-09-04T21:34:45.692Z,18.27
2022-09-04T21:36:55.409Z,18.28
2022-09-04T21:39:28.437Z,18.23
2022-09-04T21:41:54.799Z,18.18
2022-09-04T21:44:34.398Z,18.14
2022-09-04T21:47:16.055Z,18.09
2022-09-04T21:49:36.838Z,18.11
2022-09-04T21:51:58.860Z,18.10
2022-09-04T21:54:37.535Z,18.09
2022-09-04T22:02:28.791Z,17.89
2022-09-04T22:02:36.344Z,17.70
2022-09-04T22:02:55.604Z,17.65
2022-09-04T22:05:13.077Z,17.67
2022-09-04T22:10:52.863Z,17.61
2022-09-04T22:13:29.848Z,17.70
2022-09-04T22:13:38.742Z,17.73
2022-09-04T22:15:31.620Z,17.74
2022-09-04T22:18:04.961Z,17.78
2022-09-04T22:20:34.860Z,17.69
2022-09-04T22:23:05.781Z,17.53
2022-09-04T22:25:27.897Z,17.65
2022-09-04T22:28:07.566Z,17.56
2022-09-04T22:30:14.847Z,17.51
2022-09-04T22:32:53.239Z,17.46
2022-09-04T22:35:43.394Z,17.38
2022-09-04T22:38:30.637Z,17.37
2022-09-04T22:40:56.866Z,17.38
2022-09-04T22:43:14.493Z,17.33
2022-09-04T22:45:59.518Z,17.31
2022-09-04T22:48:23.623Z,17.27
2022-09-04T22:50:49.363Z,17.23
2022-09-04T22:53:29.136Z,17.34
2022-09-04T22:56:19.198Z,17.35
2022-09-04T22:58:27.319Z,17.25
2022-09-04T23:00:44.202Z,17.16
2022-09-04T23:03:15.894Z,17.14
2022-09-04T23:05:47.847Z,17.24
2022-09-04T23:13:43.116Z,17.09
2022-09-04T23:13:44.860Z,17.04
2022-09-04T23:13:56.457Z,17.05
2022-09-04T23:16:08.056Z,17.03
2022-09-04T23:24:21.245Z,17.09
2022-09-04T23:26:34.871Z,17.07
2022-09-04T23:26:50.719Z,17.00
2022-09-04T23:27:00.975Z,16.97
2022-09-04T23:29:24.756Z,17.06
2022-09-04T23:31:47.370Z,17.13
2022-09-04T23:34:14.058Z,17.10
2022-09-04T23:36:38.955Z,17.02
2022-09-04T23:39:27.246Z,16.97
2022-09-04T23:41:53.612Z,16.97
2022-09-04T23:44:34.093Z,16.99
2022-09-04T23:47:06.013Z,17.06
2022-09-04T23:49:33.715Z,17.00
2022-09-04T23:51:47.940Z,16.96
2022-09-04T23:53:59.366Z,16.92
2022-09-04T23:56:18.755Z,16.94
2022-09-04T23:58:53.914Z,16.89
